Terminal Aerodrome Forecast
Issued by NWS Twin Cities, MN

Home | Current Version | Previous Version | Graphics & Text | Print | Product List | Glossary On
Versions: 1 2 3 4 5 6 7 8 9 10 11 12 13 14 15 16 17 18 19 20 21 22 23 24 25 26 27 28 29 30 31 32 33
657
FTUS43 KMPX 171830 AAA
TAFMSP
TAF AMD
KMSP 171830Z 1719/1824 15007KT 1 1/2SM -DZ BR OVC007
      TEMPO 1719/1721 3/4SM -DZ BR OVC005
     FM172100 VRB04KT 2SM -RA BR OVC007
     FM180000 02005KT 4SM -DZ OVC009
     FM180400 34012KT P6SM OVC012
     FM180800 34008KT P6SM OVC015
     FM181200 33009KT P6SM SCT020 BKN040
     FM182000 32014KT P6SM SCT050=

USA.gov is the U.S. government's official web portal to all federal, state and local government web resources and services.